sensor_id;sensor_type;location;lat;lon;timestamp;temperature;humidity
42965;DHT22;28604;51.204;22.552;2023-05-14T00:03:06;12.60;68.80
42965;DHT22;28604;51.204;22.552;2023-05-14T00:05:32;12.60;68.80
42965;DHT22;28604;51.204;22.552;2023-05-14T00:07:58;12.50;68.80
42965;DHT22;28604;51.204;22.552;2023-05-14T00:10:25;12.50;68.10
42965;DHT22;28604;51.204;22.552;2023-05-14T00:12:51;12.50;68.50
42965;DHT22;28604;51.204;22.552;2023-05-14T00:15:17;12.40;69.30
42965;DHT22;28604;51.204;22.552;2023-05-14T00:17:43;12.40;69.30
42965;DHT22;28604;51.204;22.552;2023-05-14T00:20:10;12.40;69.20
42965;DHT22;28604;51.204;22.552;2023-05-14T00:22:39;12.30;69.10
42965;DHT22;28604;51.204;22.552;2023-05-14T00:25:06;12.30;69.50
42965;DHT22;28604;51.204;22.552;2023-05-14T00:27:33;12.30;69.80
42965;DHT22;28604;51.204;22.552;2023-05-14T00:29:59;12.20;69.80
42965;DHT22;28604;51.204;22.552;2023-05-14T00:32:25;12.20;69.40
42965;DHT22;28604;51.204;22.552;2023-05-14T00:34:51;12.20;69.30
42965;DHT22;28604;51.204;22.552;2023-05-14T00:37:17;12.10;69.60
42965;DHT22;28604;51.204;22.552;2023-05-14T00:39:43;12.10;70.00
42965;DHT22;28604;51.204;22.552;2023-05-14T00:42:09;12.10;69.90
42965;DHT22;28604;51.204;22.552;2023-05-14T00:44:35;12.00;69.80
42965;DHT22;28604;51.204;22.552;2023-05-14T00:47:01;12.00;69.40
42965;DHT22;28604;51.204;22.552;2023-05-14T00:49:28;12.00;69.20
42965;DHT22;28604;51.204;22.552;2023-05-14T00:51:54;12.00;69.30
42965;DHT22;28604;51.204;22.552;2023-05-14T00:54:20;11.90;70.00
42965;DHT22;28604;51.204;22.552;2023-05-14T00:56:47;11.90;71.00
42965;DHT22;28604;51.204;22.552;2023-05-14T00:59:13;11.90;70.20
42965;DHT22;28604;51.204;22.552;2023-05-14T01:01:39;11.90;70.30
42965;DHT22;28604;51.204;22.552;2023-05-14T01:04:05;11.80;70.70
42965;DHT22;28604;51.204;22.552;2023-05-14T01:07:00;11.80;71.70
42965;DHT22;28604;51.204;22.552;2023-05-14T01:09:47;11.80;71.50
42965;DHT22;28604;51.204;22.552;2023-05-14T01:12:28;11.70;72.10
42965;DHT22;28604;51.204;22.552;2023-05-14T01:15:14;11.80;71.80
42965;DHT22;28604;51.204;22.552;2023-05-14T01:17:56;11.80;71.10
42965;DHT22;28604;51.204;22.552;2023-05-14T01:20:24;11.70;70.90
42965;DHT22;28604;51.204;22.552;2023-05-14T01:22:50;11.70;70.90
42965;DHT22;28604;51.204;22.552;2023-05-14T01:25:16;11.70;71.00
42965;DHT22;28604;51.204;22.552;2023-05-14T01:27:54;11.60;70.80
42965;DHT22;28604;51.204;22.552;2023-05-14T01:30:31;11.60;70.40
42965;DHT22;28604;51.204;22.552;2023-05-14T01:33:01;11.50;70.40
42965;DHT22;28604;51.204;22.552;2023-05-14T01:35:29;11.50;70.50
42965;DHT22;28604;51.204;22.552;2023-05-14T01:37:57;11.50;71.00
42965;DHT22;28604;51.204;22.552;2023-05-14T01:40:24;11.40;70.80
42965;DHT22;28604;51.204;22.552;2023-05-14T01:42:52;11.40;70.90
42965;DHT22;28604;51.204;22.552;2023-05-14T01:45:24;11.40;71.10
42965;DHT22;28604;51.204;22.552;2023-05-14T01:47:51;11.30;71.50
42965;DHT22;28604;51.204;22.552;2023-05-14T01:50:17;11.30;72.40
42965;DHT22;28604;51.204;22.552;2023-05-14T01:52:43;11.40;71.50
42965;DHT22;28604;51.204;22.552;2023-05-14T01:55:09;11.40;70.80
42965;DHT22;28604;51.204;22.552;2023-05-14T01:57:36;11.30;70.70
42965;DHT22;28604;51.204;22.552;2023-05-14T02:00:01;11.30;71.00
42965;DHT22;28604;51.204;22.552;2023-05-14T02:02:29;11.20;71.40
42965;DHT22;28604;51.204;22.552;2023-05-14T02:04:54;11.20;71.40
42965;DHT22;28604;51.204;22.552;2023-05-14T02:07:20;11.20;71.60
42965;DHT22;28604;51.204;22.552;2023-05-14T02:09:46;11.20;70.90
42965;DHT22;28604;51.204;22.552;2023-05-14T02:12:13;11.10;70.60
42965;DHT22;28604;51.204;22.552;2023-05-14T02:14:39;11.10;70.20
42965;DHT22;28604;51.204;22.552;2023-05-14T02:17:05;11.10;70.40
42965;DHT22;28604;51.204;22.552;2023-05-14T02:19:31;11.10;70.50
42965;DHT22;28604;51.204;22.552;2023-05-14T02:21:58;11.00;71.00
42965;DHT22;28604;51.204;22.552;2023-05-14T02:24:26;11.00;71.20
42965;DHT22;28604;51.204;22.552;2023-05-14T02:26:52;11.00;70.90
42965;DHT22;28604;51.204;22.552;2023-05-14T02:29:18;11.00;71.60
42965;DHT22;28604;51.204;22.552;2023-05-14T02:31:44;11.00;72.20
42965;DHT22;28604;51.204;22.552;2023-05-14T02:34:09;11.00;71.80
42965;DHT22;28604;51.204;22.552;2023-05-14T02:36:36;11.00;71.10
42965;DHT22;28604;51.204;22.552;2023-05-14T02:39:01;11.00;71.20
42965;DHT22;28604;51.204;22.552;2023-05-14T02:41:29;10.90;71.90
42965;DHT22;28604;51.204;22.552;2023-05-14T02:43:55;10.90;71.60
42965;DHT22;28604;51.204;22.552;2023-05-14T02:46:21;10.90;71.30
42965;DHT22;28604;51.204;22.552;2023-05-14T02:48:47;10.90;71.50
42965;DHT22;28604;51.204;22.552;2023-05-14T02:51:13;10.90;71.70
42965;DHT22;28604;51.204;22.552;2023-05-14T02:53:38;10.80;71.70
42965;DHT22;28604;51.204;22.552;2023-05-14T02:56:05;10.80;72.10
42965;DHT22;28604;51.204;22.552;2023-05-14T02:58:31;10.80;71.70
42965;DHT22;28604;51.204;22.552;2023-05-14T03:00:57;10.80;72.20
42965;DHT22;28604;51.204;22.552;2023-05-14T03:03:22;10.80;72.80
42965;DHT22;28604;51.204;22.552;2023-05-14T03:05:49;10.80;72.90
42965;DHT22;28604;51.204;22.552;2023-05-14T03:08:15;10.90;73.30
42965;DHT22;28604;51.204;22.552;2023-05-14T03:10:41;10.80;73.40
42965;DHT22;28604;51.204;22.552;2023-05-14T03:13:07;10.80;73.30
42965;DHT22;28604;51.204;22.552;2023-05-14T03:15:33;10.90;73.50
42965;DHT22;28604;51.204;22.552;2023-05-14T03:17:59;10.90;73.50
42965;DHT22;28604;51.204;22.552;2023-05-14T03:20:25;10.80;73.70
42965;DHT22;28604;51.204;22.552;2023-05-14T03:22:51;10.80;73.80
42965;DHT22;28604;51.204;22.552;2023-05-14T03:25:18;10.80;73.90
42965;DHT22;28604;51.204;22.552;2023-05-14T03:27:44;10.80;73.70
42965;DHT22;28604;51.204;22.552;2023-05-14T03:30:10;10.80;73.40
42965;DHT22;28604;51.204;22.552;2023-05-14T03:32:36;10.80;73.50
42965;DHT22;28604;51.204;22.552;2023-05-14T03:35:02;10.80;72.90
42965;DHT22;28604;51.204;22.552;2023-05-14T03:37:28;10.90;73.30
42965;DHT22;28604;51.204;22.552;2023-05-14T03:39:55;10.80;72.90
42965;DHT22;28604;51.204;22.552;2023-05-14T03:42:21;10.90;72.90
42965;DHT22;28604;51.204;22.552;2023-05-14T03:44:47;10.90;73.50
42965;DHT22;28604;51.204;22.552;2023-05-14T03:47:13;11.00;73.70
42965;DHT22;28604;51.204;22.552;2023-05-14T03:49:39;11.00;74.20
42965;DHT22;28604;51.204;22.552;2023-05-14T03:52:08;11.00;73.90
42965;DHT22;28604;51.204;22.552;2023-05-14T03:54:34;11.00;74.10
42965;DHT22;28604;51.204;22.552;2023-05-14T03:57:00;11.10;73.80
42965;DHT22;28604;51.204;22.552;2023-05-14T03:59:26;11.10;73.90
42965;DHT22;28604;51.204;22.552;2023-05-14T04:01:52;11.20;74.10
42965;DHT22;28604;51.204;22.552;2023-05-14T04:04:18;11.20;74.00
42965;DHT22;28604;51.204;22.552;2023-05-14T04:06:44;11.30;74.00
42965;DHT22;28604;51.204;22.552;2023-05-14T04:09:10;11.40;73.50
42965;DHT22;28604;51.204;22.552;2023-05-14T04:11:37;11.40;73.50
42965;DHT22;28604;51.204;22.552;2023-05-14T04:14:03;11.50;73.40
42965;DHT22;28604;51.204;22.552;2023-05-14T04:16:29;11.50;73.80
42965;DHT22;28604;51.204;22.552;2023-05-14T04:18:55;11.50;73.50
42965;DHT22;28604;51.204;22.552;2023-05-14T04:21:21;11.60;73.00
42965;DHT22;28604;51.204;22.552;2023-05-14T04:23:47;11.80;72.70
42965;DHT22;28604;51.204;22.552;2023-05-14T04:26:13;11.90;72.60
42965;DHT22;28604;51.204;22.552;2023-05-14T04:28:39;12.00;72.50
42965;DHT22;28604;51.204;22.552;2023-05-14T04:31:05;12.10;72.20
42965;DHT22;28604;51.204;22.552;2023-05-14T04:33:31;12.20;72.10
42965;DHT22;28604;51.204;22.552;2023-05-14T04:35:57;12.30;71.50
42965;DHT22;28604;51.204;22.552;2023-05-14T04:38:23;12.40;71.00
42965;DHT22;28604;51.204;22.552;2023-05-14T04:40:48;12.40;71.70
42965;DHT22;28604;51.204;22.552;2023-05-14T04:43:15;12.50;70.80
42965;DHT22;28604;51.204;22.552;2023-05-14T04:45:42;12.50;71.30
42965;DHT22;28604;51.204;22.552;2023-05-14T04:48:08;12.60;71.30
42965;DHT22;28604;51.204;22.552;2023-05-14T04:50:34;12.60;70.80
42965;DHT22;28604;51.204;22.552;2023-05-14T04:53:00;12.60;70.80
42965;DHT22;28604;51.204;22.552;2023-05-14T04:55:26;12.70;71.40
42965;DHT22;28604;51.204;22.552;2023-05-14T04:57:52;12.70;70.90
42965;DHT22;28604;51.204;22.552;2023-05-14T05:00:18;12.80;70.40
42965;DHT22;28604;51.204;22.552;2023-05-14T05:02:46;12.90;70.10
42965;DHT22;28604;51.204;22.552;2023-05-14T05:05:12;13.00;70.10
42965;DHT22;28604;51.204;22.552;2023-05-14T05:07:38;13.10;70.30
42965;DHT22;28604;51.204;22.552;2023-05-14T05:10:04;13.10;69.80
42965;DHT22;28604;51.204;22.552;2023-05-14T05:12:30;13.20;69.10
42965;DHT22;28604;51.204;22.552;2023-05-14T05:14:56;13.30;69.90
42965;DHT22;28604;51.204;22.552;2023-05-14T05:17:23;13.30;69.70
42965;DHT22;28604;51.204;22.552;2023-05-14T05:19:49;13.40;69.60
42965;DHT22;28604;51.204;22.552;2023-05-14T05:22:15;13.50;69.50
42965;DHT22;28604;51.204;22.552;2023-05-14T05:24:41;13.50;69.60
42965;DHT22;28604;51.204;22.552;2023-05-14T05:27:07;13.70;70.10
42965;DHT22;28604;51.204;22.552;2023-05-14T05:29:33;13.80;70.00
42965;DHT22;28604;51.204;22.552;2023-05-14T05:32:00;13.80;70.20
42965;DHT22;28604;51.204;22.552;2023-05-14T05:34:26;13.90;70.30
42965;DHT22;28604;51.204;22.552;2023-05-14T05:36:52;14.10;70.30
42965;DHT22;28604;51.204;22.552;2023-05-14T05:39:18;14.20;70.00
42965;DHT22;28604;51.204;22.552;2023-05-14T05:41:44;14.40;70.50
42965;DHT22;28604;51.204;22.552;2023-05-14T05:44:10;14.50;70.50
42965;DHT22;28604;51.204;22.552;2023-05-14T05:46:36;14.70;70.30
42965;DHT22;28604;51.204;22.552;2023-05-14T05:49:02;14.90;70.00
42965;DHT22;28604;51.204;22.552;2023-05-14T05:51:28;15.10;69.00
42965;DHT22;28604;51.204;22.552;2023-05-14T05:53:54;15.30;68.70
42965;DHT22;28604;51.204;22.552;2023-05-14T05:56:20;15.50;68.80
42965;DHT22;28604;51.204;22.552;2023-05-14T05:58:46;15.70;68.10
42965;DHT22;28604;51.204;22.552;2023-05-14T06:01:12;16.00;67.10
42965;DHT22;28604;51.204;22.552;2023-05-14T06:03:38;16.20;66.40
42965;DHT22;28604;51.204;22.552;2023-05-14T06:06:04;16.50;65.50
42965;DHT22;28604;51.204;22.552;2023-05-14T06:08:31;16.90;62.70
42965;DHT22;28604;51.204;22.552;2023-05-14T06:10:57;17.20;62.60
42965;DHT22;28604;51.204;22.552;2023-05-14T06:13:22;17.60;62.30
42965;DHT22;28604;51.204;22.552;2023-05-14T06:15:48;18.10;60.00
42965;DHT22;28604;51.204;22.552;2023-05-14T06:18:14;18.40;59.90
42965;DHT22;28604;51.204;22.552;2023-05-14T06:20:40;18.90;59.30
42965;DHT22;28604;51.204;22.552;2023-05-14T06:23:06;19.30;57.50
42965;DHT22;28604;51.204;22.552;2023-05-14T06:25:33;19.70;56.10
42965;DHT22;28604;51.204;22.552;2023-05-14T06:27:59;20.00;54.80
42965;DHT22;28604;51.204;22.552;2023-05-14T06:30:25;20.20;55.30
42965;DHT22;28604;51.204;22.552;2023-05-14T06:32:51;20.30;53.20
42965;DHT22;28604;51.204;22.552;2023-05-14T06:35:17;20.40;53.40
42965;DHT22;28604;51.204;22.552;2023-05-14T06:37:44;20.90;53.00
42965;DHT22;28604;51.204;22.552;2023-05-14T06:40:11;21.20;53.20
42965;DHT22;28604;51.204;22.552;2023-05-14T06:42:37;21.40;51.90
42965;DHT22;28604;51.204;22.552;2023-05-14T06:45:04;21.50;51.20
42965;DHT22;28604;51.204;22.552;2023-05-14T06:47:30;21.60;51.40
42965;DHT22;28604;51.204;22.552;2023-05-14T06:49:56;21.90;50.90
42965;DHT22;28604;51.204;22.552;2023-05-14T06:52:23;22.10;51.00
42965;DHT22;28604;51.204;22.552;2023-05-14T06:54:50;22.40;48.30
42965;DHT22;28604;51.204;22.552;2023-05-14T06:57:16;22.50;48.60
42965;DHT22;28604;51.204;22.552;2023-05-14T06:59:42;22.50;48.10
42965;DHT22;28604;51.204;22.552;2023-05-14T07:02:07;22.50;48.50
42965;DHT22;28604;51.204;22.552;2023-05-14T07:04:34;22.60;48.60
42965;DHT22;28604;51.204;22.552;2023-05-14T07:07:00;22.80;48.90
42965;DHT22;28604;51.204;22.552;2023-05-14T07:09:27;22.80;47.80
42965;DHT22;28604;51.204;22.552;2023-05-14T07:11:52;22.70;47.50
42965;DHT22;28604;51.204;22.552;2023-05-14T07:14:18;22.70;48.00
42965;DHT22;28604;51.204;22.552;2023-05-14T07:16:44;22.80;48.20
42965;DHT22;28604;51.204;22.552;2023-05-14T07:19:11;22.90;48.30
42965;DHT22;28604;51.204;22.552;2023-05-14T07:21:37;22.90;47.40
42965;DHT22;28604;51.204;22.552;2023-05-14T07:24:04;22.70;47.40
42965;DHT22;28604;51.204;22.552;2023-05-14T07:26:30;22.50;48.30
42965;DHT22;28604;51.204;22.552;2023-05-14T07:28:56;22.30;48.70
42965;DHT22;28604;51.204;22.552;2023-05-14T07:31:22;22.40;49.50
42965;DHT22;28604;51.204;22.552;2023-05-14T07:33:48;22.30;48.20
42965;DHT22;28604;51.204;22.552;2023-05-14T07:36:14;22.30;48.70
42965;DHT22;28604;51.204;22.552;2023-05-14T07:38:40;22.40;48.10
42965;DHT22;28604;51.204;22.552;2023-05-14T07:41:06;22.50;46.50
42965;DHT22;28604;51.204;22.552;2023-05-14T07:43:32;22.40;47.40
42965;DHT22;28604;51.204;22.552;2023-05-14T07:45:58;22.80;46.50
42965;DHT22;28604;51.204;22.552;2023-05-14T07:48:24;22.80;47.50
42965;DHT22;28604;51.204;22.552;2023-05-14T07:50:50;22.80;46.20
42965;DHT22;28604;51.204;22.552;2023-05-14T07:53:16;23.00;47.30
42965;DHT22;28604;51.204;22.552;2023-05-14T07:55:43;22.90;45.70
42965;DHT22;28604;51.204;22.552;2023-05-14T07:58:10;22.90;46.20
42965;DHT22;28604;51.204;22.552;2023-05-14T08:00:35;22.90;46.80
42965;DHT22;28604;51.204;22.552;2023-05-14T08:03:02;23.00;46.80
42965;DHT22;28604;51.204;22.552;2023-05-14T08:05:27;23.50;45.60
42965;DHT22;28604;51.204;22.552;2023-05-14T08:07:53;23.90;46.40
42965;DHT22;28604;51.204;22.552;2023-05-14T08:10:19;24.60;46.00
42965;DHT22;28604;51.204;22.552;2023-05-14T08:12:45;24.70;44.00
42965;DHT22;28604;51.204;22.552;2023-05-14T08:15:11;24.90;44.00
42965;DHT22;28604;51.204;22.552;2023-05-14T08:17:37;25.50;44.20
42965;DHT22;28604;51.204;22.552;2023-05-14T08:20:03;25.90;43.50
42965;DHT22;28604;51.204;22.552;2023-05-14T08:22:31;26.20;41.90
42965;DHT22;28604;51.204;22.552;2023-05-14T08:24:57;26.20;40.80
42965;DHT22;28604;51.204;22.552;2023-05-14T08:27:24;26.10;40.90
42965;DHT22;28604;51.204;22.552;2023-05-14T08:29:50;25.90;41.40
42965;DHT22;28604;51.204;22.552;2023-05-14T08:32:16;25.80;40.90
42965;DHT22;28604;51.204;22.552;2023-05-14T08:34:42;25.50;40.90
42965;DHT22;28604;51.204;22.552;2023-05-14T08:37:08;25.20;41.40
42965;DHT22;28604;51.204;22.552;2023-05-14T08:39:34;25.10;41.00
42965;DHT22;28604;51.204;22.552;2023-05-14T08:42:01;25.10;41.10
42965;DHT22;28604;51.204;22.552;2023-05-14T08:44:47;24.90;42.30
42965;DHT22;28604;51.204;22.552;2023-05-14T08:47:15;25.20;41.40
42965;DHT22;28604;51.204;22.552;2023-05-14T08:49:45;25.50;41.90
42965;DHT22;28604;51.204;22.552;2023-05-14T08:52:12;25.20;40.70
42965;DHT22;28604;51.204;22.552;2023-05-14T08:54:39;24.90;41.20
42965;DHT22;28604;51.204;22.552;2023-05-14T08:57:08;24.60;41.50
42965;DHT22;28604;51.204;22.552;2023-05-14T08:59:34;24.40;42.70
42965;DHT22;28604;51.204;22.552;2023-05-14T09:02:01;24.40;43.30
42965;DHT22;28604;51.204;22.552;2023-05-14T09:04:27;24.30;43.50
42965;DHT22;28604;51.204;22.552;2023-05-14T09:06:54;24.80;42.50
42965;DHT22;28604;51.204;22.552;2023-05-14T09:09:20;25.40;43.10
42965;DHT22;28604;51.204;22.552;2023-05-14T09:11:48;25.60;41.80
42965;DHT22;28604;51.204;22.552;2023-05-14T09:14:15;25.80;41.30
42965;DHT22;28604;51.204;22.552;2023-05-14T09:16:44;25.60;41.00
42965;DHT22;28604;51.204;22.552;2023-05-14T09:19:14;25.70;41.50
42965;DHT22;28604;51.204;22.552;2023-05-14T09:21:40;26.00;41.60
42965;DHT22;28604;51.204;22.552;2023-05-14T09:24:07;26.30;41.20
42965;DHT22;28604;51.204;22.552;2023-05-14T09:26:34;25.90;41.50
42965;DHT22;28604;51.204;22.552;2023-05-14T09:29:00;25.90;42.10
42965;DHT22;28604;51.204;22.552;2023-05-14T09:31:31;25.90;42.40
42965;DHT22;28604;51.204;22.552;2023-05-14T09:33:58;26.00;41.60
42965;DHT22;28604;51.204;22.552;2023-05-14T09:36:24;25.60;41.10
42965;DHT22;28604;51.204;22.552;2023-05-14T09:38:55;25.40;41.10
42965;DHT22;28604;51.204;22.552;2023-05-14T09:41:21;25.20;41.50
42965;DHT22;28604;51.204;22.552;2023-05-14T09:43:49;25.30;41.80
42965;DHT22;28604;51.204;22.552;2023-05-14T09:46:15;25.20;41.70
42965;DHT22;28604;51.204;22.552;2023-05-14T09:48:41;25.20;41.30
42965;DHT22;28604;51.204;22.552;2023-05-14T09:51:08;25.00;41.60
42965;DHT22;28604;51.204;22.552;2023-05-14T09:53:34;25.00;42.00
42965;DHT22;28604;51.204;22.552;2023-05-14T09:56:01;25.10;42.90
42965;DHT22;28604;51.204;22.552;2023-05-14T09:58:26;25.40;41.60
42965;DHT22;28604;51.204;22.552;2023-05-14T10:00:56;25.80;41.30
42965;DHT22;28604;51.204;22.552;2023-05-14T10:03:24;25.50;41.30
42965;DHT22;28604;51.204;22.552;2023-05-14T10:05:50;25.60;41.80
42965;DHT22;28604;51.204;22.552;2023-05-14T10:08:23;25.70;41.20
42965;DHT22;28604;51.204;22.552;2023-05-14T10:10:53;25.80;41.20
42965;DHT22;28604;51.204;22.552;2023-05-14T10:13:23;26.10;40.80
42965;DHT22;28604;51.204;22.552;2023-05-14T10:16:03;26.40;40.50
42965;DHT22;28604;51.204;22.552;2023-05-14T10:18:38;26.50;40.40
42965;DHT22;28604;51.204;22.552;2023-05-14T10:21:06;26.90;40.90
42965;DHT22;28604;51.204;22.552;2023-05-14T10:23:33;26.80;40.50
42965;DHT22;28604;51.204;22.552;2023-05-14T10:26:03;26.80;40.40
42965;DHT22;28604;51.204;22.552;2023-05-14T10:28:30;26.80;41.50
42965;DHT22;28604;51.204;22.552;2023-05-14T10:30:58;26.10;40.90
42965;DHT22;28604;51.204;22.552;2023-05-14T10:33:24;25.90;41.90
42965;DHT22;28604;51.204;22.552;2023-05-14T10:38:35;25.90;41.60
42965;DHT22;28604;51.204;22.552;2023-05-14T10:41:11;26.30;42.20
42965;DHT22;28604;51.204;22.552;2023-05-14T10:43:39;26.30;41.40
42965;DHT22;28604;51.204;22.552;2023-05-14T10:46:07;26.00;41.20
42965;DHT22;28604;51.204;22.552;2023-05-14T10:48:36;25.60;41.90
42965;DHT22;28604;51.204;22.552;2023-05-14T10:51:02;25.30;43.00
42965;DHT22;28604;51.204;22.552;2023-05-14T10:53:35;25.10;42.00
42965;DHT22;28604;51.204;22.552;2023-05-14T10:56:06;25.20;43.30
42965;DHT22;28604;51.204;22.552;2023-05-14T10:58:38;25.60;43.30
42965;DHT22;28604;51.204;22.552;2023-05-14T11:01:09;25.60;41.70
42965;DHT22;28604;51.204;22.552;2023-05-14T11:03:41;25.30;42.90
42965;DHT22;28604;51.204;22.552;2023-05-14T11:06:08;25.40;42.50
42965;DHT22;28604;51.204;22.552;2023-05-14T11:08:34;25.50;42.60
42965;DHT22;28604;51.204;22.552;2023-05-14T11:11:01;25.30;42.50
42965;DHT22;28604;51.204;22.552;2023-05-14T11:13:27;25.30;42.30
42965;DHT22;28604;51.204;22.552;2023-05-14T11:15:54;25.30;41.90
42965;DHT22;28604;51.204;22.552;2023-05-14T11:18:30;25.40;42.70
42965;DHT22;28604;51.204;22.552;2023-05-14T11:20:59;25.60;42.40
42965;DHT22;28604;51.204;22.552;2023-05-14T11:23:26;25.60;41.60
42965;DHT22;28604;51.204;22.552;2023-05-14T11:25:53;25.40;42.80
42965;DHT22;28604;51.204;22.552;2023-05-14T11:28:20;25.50;42.60
42965;DHT22;28604;51.204;22.552;2023-05-14T11:30:50;25.40;41.80
42965;DHT22;28604;51.204;22.552;2023-05-14T11:33:17;25.20;41.70
42965;DHT22;28604;51.204;22.552;2023-05-14T11:35:44;25.00;42.60
42965;DHT22;28604;51.204;22.552;2023-05-14T11:38:18;25.10;42.60
42965;DHT22;28604;51.204;22.552;2023-05-14T11:40:54;25.10;42.30
42965;DHT22;28604;51.204;22.552;2023-05-14T11:43:20;25.10;42.00
42965;DHT22;28604;51.204;22.552;2023-05-14T11:45:51;25.10;42.60
42965;DHT22;28604;51.204;22.552;2023-05-14T11:48:17;25.10;41.90
42965;DHT22;28604;51.204;22.552;2023-05-14T11:50:51;25.20;42.50
42965;DHT22;28604;51.204;22.552;2023-05-14T11:53:27;25.20;41.60
42965;DHT22;28604;51.204;22.552;2023-05-14T11:55:54;25.10;42.20
42965;DHT22;28604;51.204;22.552;2023-05-14T11:58:20;25.10;42.50
42965;DHT22;28604;51.204;22.552;2023-05-14T12:00:51;25.00;42.10
42965;DHT22;28604;51.204;22.552;2023-05-14T12:03:20;24.80;42.60
42965;DHT22;28604;51.204;22.552;2023-05-14T12:06:00;24.80;43.10
42965;DHT22;28604;51.204;22.552;2023-05-14T12:08:30;24.60;43.20
42965;DHT22;28604;51.204;22.552;2023-05-14T12:11:00;24.50;44.30
42965;DHT22;28604;51.204;22.552;2023-05-14T12:13:27;24.50;42.50
42965;DHT22;28604;51.204;22.552;2023-05-14T12:15:58;24.50;42.40
42965;DHT22;28604;51.204;22.552;2023-05-14T12:18:30;24.50;42.90
42965;DHT22;28604;51.204;22.552;2023-05-14T12:21:02;24.40;42.80
42965;DHT22;28604;51.204;22.552;2023-05-14T12:23:29;24.30;44.70
42965;DHT22;28604;51.204;22.552;2023-05-14T12:26:04;24.20;44.90
42965;DHT22;28604;51.204;22.552;2023-05-14T12:28:31;24.20;43.10
42965;DHT22;28604;51.204;22.552;2023-05-14T12:30:59;24.10;43.80
42965;DHT22;28604;51.204;22.552;2023-05-14T12:33:27;24.10;43.70
42965;DHT22;28604;51.204;22.552;2023-05-14T12:35:53;24.20;44.20
42965;DHT22;28604;51.204;22.552;2023-05-14T12:38:25;24.30;44.90
42965;DHT22;28604;51.204;22.552;2023-05-14T12:40:52;24.40;44.40
42965;DHT22;28604;51.204;22.552;2023-05-14T12:43:18;24.40;43.80
42965;DHT22;28604;51.204;22.552;2023-05-14T12:45:44;24.40;44.40
42965;DHT22;28604;51.204;22.552;2023-05-14T12:48:10;24.50;44.60
42965;DHT22;28604;51.204;22.552;2023-05-14T12:50:38;24.60;44.30
42965;DHT22;28604;51.204;22.552;2023-05-14T12:53:04;24.50;43.30
42965;DHT22;28604;51.204;22.552;2023-05-14T12:55:30;24.30;43.70
42965;DHT22;28604;51.204;22.552;2023-05-14T12:57:56;24.40;43.90
42965;DHT22;28604;51.204;22.552;2023-05-14T13:00:22;24.30;43.50
42965;DHT22;28604;51.204;22.552;2023-05-14T13:02:48;24.30;44.00
42965;DHT22;28604;51.204;22.552;2023-05-14T13:05:14;24.30;44.20
42965;DHT22;28604;51.204;22.552;2023-05-14T13:07:40;24.30;43.60
42965;DHT22;28604;51.204;22.552;2023-05-14T13:10:07;24.20;44.10
42965;DHT22;28604;51.204;22.552;2023-05-14T13:12:33;24.30;44.00
42965;DHT22;28604;51.204;22.552;2023-05-14T13:14:59;24.40;44.70
42965;DHT22;28604;51.204;22.552;2023-05-14T13:17:25;24.60;44.20
42965;DHT22;28604;51.204;22.552;2023-05-14T13:19:51;24.70;44.00
42965;DHT22;28604;51.204;22.552;2023-05-14T13:22:17;24.90;44.30
42965;DHT22;28604;51.204;22.552;2023-05-14T13:24:43;25.00;45.00
42965;DHT22;28604;51.204;22.552;2023-05-14T13:27:10;25.00;43.40
42965;DHT22;28604;51.204;22.552;2023-05-14T13:29:36;25.00;44.00
42965;DHT22;28604;51.204;22.552;2023-05-14T13:32:02;24.90;43.10
42965;DHT22;28604;51.204;22.552;2023-05-14T13:34:28;24.80;43.10
42965;DHT22;28604;51.204;22.552;2023-05-14T13:36:54;24.90;43.80
42965;DHT22;28604;51.204;22.552;2023-05-14T13:39:20;25.00;43.70
42965;DHT22;28604;51.204;22.552;2023-05-14T13:41:52;25.00;43.60
42965;DHT22;28604;51.204;22.552;2023-05-14T13:44:20;25.00;43.80
42965;DHT22;28604;51.204;22.552;2023-05-14T13:46:46;25.00;43.50
42965;DHT22;28604;51.204;22.552;2023-05-14T13:49:12;24.90;43.90
42965;DHT22;28604;51.204;22.552;2023-05-14T13:51:38;24.90;43.50
42965;DHT22;28604;51.204;22.552;2023-05-14T13:54:04;24.80;44.30
42965;DHT22;28604;51.204;22.552;2023-05-14T13:56:30;24.70;43.60
42965;DHT22;28604;51.204;22.552;2023-05-14T13:58:56;24.80;44.00
42965;DHT22;28604;51.204;22.552;2023-05-14T14:01:22;24.80;43.60
42965;DHT22;28604;51.204;22.552;2023-05-14T14:03:48;24.80;44.10
42965;DHT22;28604;51.204;22.552;2023-05-14T14:06:14;24.80;43.30
42965;DHT22;28604;51.204;22.552;2023-05-14T14:08:40;24.90;43.20
42965;DHT22;28604;51.204;22.552;2023-05-14T14:11:05;24.90;42.70
42965;DHT22;28604;51.204;22.552;2023-05-14T14:13:31;24.90;42.80
42965;DHT22;28604;51.204;22.552;2023-05-14T14:15:57;24.90;42.50
42965;DHT22;28604;51.204;22.552;2023-05-14T14:18:23;24.80;42.60
42965;DHT22;28604;51.204;22.552;2023-05-14T14:20:49;24.70;42.40
42965;DHT22;28604;51.204;22.552;2023-05-14T14:23:15;24.70;43.80
42965;DHT22;28604;51.204;22.552;2023-05-14T14:25:41;24.60;42.60
42965;DHT22;28604;51.204;22.552;2023-05-14T14:28:07;24.60;42.50
42965;DHT22;28604;51.204;22.552;2023-05-14T14:30:33;24.60;43.50
42965;DHT22;28604;51.204;22.552;2023-05-14T14:32:59;24.70;43.60
42965;DHT22;28604;51.204;22.552;2023-05-14T14:35:25;24.70;41.80
42965;DHT22;28604;51.204;22.552;2023-05-14T14:37:51;24.60;42.80
42965;DHT22;28604;51.204;22.552;2023-05-14T14:40:18;24.60;43.50
42965;DHT22;28604;51.204;22.552;2023-05-14T14:42:44;24.70;43.10
42965;DHT22;28604;51.204;22.552;2023-05-14T14:45:11;24.60;42.50
42965;DHT22;28604;51.204;22.552;2023-05-14T14:47:37;24.30;42.00
42965;DHT22;28604;51.204;22.552;2023-05-14T14:50:03;24.10;42.80
42965;DHT22;28604;51.204;22.552;2023-05-14T14:52:29;24.00;43.00
42965;DHT22;28604;51.204;22.552;2023-05-14T14:54:55;23.90;42.80
42965;DHT22;28604;51.204;22.552;2023-05-14T14:57:22;23.80;43.40
42965;DHT22;28604;51.204;22.552;2023-05-14T14:59:48;23.70;43.00
42965;DHT22;28604;51.204;22.552;2023-05-14T15:02:14;23.60;43.30
42965;DHT22;28604;51.204;22.552;2023-05-14T15:04:40;23.60;43.30
42965;DHT22;28604;51.204;22.552;2023-05-14T15:07:06;23.60;43.40
42965;DHT22;28604;51.204;22.552;2023-05-14T15:09:32;23.80;44.00
42965;DHT22;28604;51.204;22.552;2023-05-14T15:11:58;23.80;44.70
42965;DHT22;28604;51.204;22.552;2023-05-14T15:14:24;23.90;43.50
42965;DHT22;28604;51.204;22.552;2023-05-14T15:16:50;23.90;43.50
42965;DHT22;28604;51.204;22.552;2023-05-14T15:19:16;23.90;42.90